Relevés horaires St-Hubert (Belgique)


Relevés horaires à St-Hubert - Mercredi 01 Août 2018
Heure UTC1 Température [°C] Vent [km/h] Hum. [%] Pres.4 [hPa] Visi. [Km] Nébu. [octa] Préc.5 [mm] Cond.
2m. Res. Ros. Dir.2 Vit. Moy. Raf.3
23:00 18.0 18.0 14.8 E 1.9 5.6 5.6 82 1021.7(0.3/3h) 45 0/8 -- --
22:00 18.7 18.7 14.8 SSE 5.6 5.6 7.4 78 1021.5(1.0/3h) 45 0/8 -- --
21:00 20.5 20.5 15.2 SSE 5.6 7.4 7.4 72 1021.1(1.3/3h) 45 0/8 -- --
20:00 21.3 21.3 14.6 SE 3.7 3.7 5.6 66 1020.7(1.2/3h) 45 0/8 -- --
19:00 23.3 23.3 14.2 S 1.9 3.7 3.7 57 1019.4(-0.1/3h) 40 0/8 -- --
18:00 24.1 24.1 14.4 S 3.7 5.6 11.1 55 1019(-0.2/3h) 45 0/8 0/12h
--
17:00 24.6 24.6 13.3 E 3.7 5.6 7.4 49 1018.8(-0.7/3h) 40 0/8 -- --
16:00 25.5 25.5 13.3 NNO 1.9 3.7 7.4 47 1018.9(-0.7/3h) 35 0/8 -- --
15:00 26.0 26.0 12.7 NNO 3.7 5.6 11.1 44 1018.9(-0.7/3h) 30 0/8 -- --
14:00 24.5 24.5 12.2 NNO 1.9 3.7 7.4 46 1019.5(-0.5/3h) 30 0/8 -- --
13:00 23.9 23.9 12.7 SSE 3.7 5.6 7.4 50 1020(-0.2/3h) 40 0/8 -- --
12:00 23.3 23.3 13.5 SSO 1.9 3.7 7.4 54 1020.2(0.1/3h) 40 0/8 0/6h
--
11:00 22.9 22.9 13.2 S 3.7 3.7 7.4 54 1020.3(0.2/3h) 45 0/8 -- --
10:00 22.7 22.7 13.4 NNO 1.9 3.7 5.6 56 1020.5(0.9/3h) 35 0/8 -- --
09:00 21.1 21.1 12.9 OSO 3.7 3.7 5.6 59 1020.6(1.1/3h) 30 0/8 -- --
08:00 20.3 20.3 14.6 O 1.9 1.9 3.7 70 1020.6(1.2/3h) 26 0/8 -- --
07:00 19.8 19.8 12.9 NNO 0.0 1.9 3.7 64 1020.1(0.8/3h) 35 0/8 -- --
06:00 19.0 19.0 12.7 E 1.9 5.6 7.4 67 1019.8(0.3/3h) 40 0/8 0/12h
--
05:00 17.2 17.2 11.9 ENE 3.7 5.6 7.4 71 1020.1(0.0/3h) 45 0/8 -- --
04:00 17.4 17.4 12.2 ENE 5.6 5.6 7.4 72 1019.9(-0.3/3h) 45 0/8 -- --
03:00 17.9 17.9 12.0 ENE 5.6 5.6 7.4 68 1019.8(-0.3/3h) 45 1/8 -- --
02:00 17.9 17.9 11.8 E 5.6 5.6 7.4 67 1020(-0.3/3h) 45 0/8 -- --
01:00 17.6 17.6 11.8 ENE 5.6 5.6 5.6 69 1020.1(-0.3/3h) 45 0/8 -- --
00:00 18.7 18.7 11.2 ENE 3.7 7.4 11.1 62 1019.9(0.1/3h) 45 0/8 0/6h
0/24h
--

1 Coordinated Universal Time. Actuellement il est 01:00 locale et 23:00 UTC.

2 Le vent souffle depuis la direction indiquée vers la direction oposée.

3 Les rafales max. sont disponible 40 min après l'heure du relevé.

4 Pour les stations d'altitude (plus de 600m) le géopotentiel du niveau le plus proche de la pression obligatoire est indiqué.

5 Les stations disposant d'un diffuseur peuvent indiquer "trace". Cela signifie que des précipitations ont touchés le sol mais que la quantité est inférieure à 0.1 mm.

Récapitulatif de la journée
Température [°C] Vent [km/h] Ensoleillement4 [h] Precipitations totale5 [mm] Pression [Hpa]
Min1 Max.2 Moy.3 Max. Min Max.
15.3 26.7 4.8 11.1 0 h 0 min 0 1018.8 1021.7

1 Température minimale relevée entre 18:00 UTC la veille et 18:00 UTC le jour donné.

2 Température maximale relevée entre 06:00 UTC le jour donné et 06:00 UTC le lendemain.

3 Vent moyen de la journée basé sur les relevés horaires.

4 Ensoleillement en heures relevé entre 06:00 UTC la veille et 06:00 UTC le jour donné.

5 Précipitations totales tombées entre 06:00 UTC la jour donné et 06:00 UTC le lendemain.

Graphiques horaires